New Castle, Kentucky
Current Conditions -  °F | °C
As of 11:53 PM on Saturday 22 Nov 2014 (Local Time) from KFFT Reporting Station
Scattered Clouds Scattered Clouds  
Wind Chill: 44°   Ceiling: Unl
Heat Index: 46°   Visibility: 10mi
Dew Point: 32°   Wind: 5mph
Humidity: 58%   Direction: 170°S
Pressure: 30.08"   Gusts: NA
Location:  38.43°N, 85.17°W
Report Text: KFFT 230453Z AUTO 17004KT 10SM SCT075 08/00 A3008 RMK AO2 SLP184 T00780000 401721039
Loading
Personal Weather Stations






























Interactive Weather Map New forecast layout! Learn more

10-Day Weather Forecast

Advertisements
Track Severe Weather on mobile